Time;durP1;ratioP1;P1;durP2;ratioP2;P2;SDS_P1;SDS_P2;PMS_P1;PMS_P2;Temp;Humidity;BMP_temperature;BMP_pressure;BME280_temperature;BME280_humidity;BME280_pressure;Samples;Min_cycle;Max_cycle;Signal;HPM_P1;HPM_P2
2022/09/08 00:00:32;;;;;;;8.48;2.17;;;;;;;17.57;90.93;100595.63;4991817;28;20042;-76
2022/09/08 00:03:01;;;;;;;5.28;1.88;;;;;;;17.60;90.42;100595.25;5022587;28;20033;-75
2022/09/08 00:05:29;;;;;;;3.92;2.00;;;;;;;17.58;89.78;100589.41;4991624;28;20708;-76
2022/09/08 00:07:55;;;;;;;4.80;2.17;;;;;;;17.54;90.20;100596.06;4991221;28;20026;-76
2022/09/08 00:10:22;;;;;;;4.95;2.25;;;;;;;17.55;90.09;100589.00;5007005;28;20056;-75
2022/09/08 00:12:48;;;;;;;8.23;2.30;;;;;;;17.56;89.73;100582.75;4995236;28;20651;-76
2022/09/08 00:15:14;;;;;;;9.05;2.20;;;;;;;17.50;89.57;100584.41;5006313;28;20038;-75
2022/09/08 00:17:39;;;;;;;6.15;1.90;;;;;;;17.45;90.01;100577.13;4992266;28;20033;-76
2022/09/08 00:20:07;;;;;;;5.35;2.45;;;;;;;17.46;89.71;100573.53;4997699;28;20037;-74
2022/09/08 00:22:33;;;;;;;4.93;2.55;;;;;;;17.43;89.86;100567.88;4989916;28;20041;-74
2022/09/08 00:24:58;;;;;;;7.43;2.10;;;;;;;17.41;90.06;100570.69;4999692;28;20038;-76
2022/09/08 00:27:23;;;;;;;4.82;2.00;;;;;;;17.42;89.99;100561.84;4999275;28;20050;-75
2022/09/08 00:29:49;;;;;;;3.75;1.70;;;;;;;17.43;90.17;100552.94;5004959;28;21373;-76
2022/09/08 00:32:15;;;;;;;6.40;2.20;;;;;;;17.43;90.37;100552.16;4990955;28;20390;-73
2022/09/08 00:34:40;;;;;;;4.20;1.88;;;;;;;17.44;90.16;100549.34;5020248;28;20042;-76
2022/09/08 00:37:05;;;;;;;7.63;2.25;;;;;;;17.47;89.79;100545.47;4994397;28;20033;-74
2022/09/08 00:39:31;;;;;;;3.55;1.95;;;;;;;17.47;89.42;100537.63;4986971;28;20116;-76
2022/09/08 00:41:57;;;;;;;4.93;2.20;;;;;;;17.46;89.71;100536.00;5007305;28;20030;-75
2022/09/08 00:44:38;;;;;;;5.20;2.35;;;;;;;17.41;90.27;100534.00;4990007;28;20026;-75
2022/09/08 00:47:18;;;;;;;7.65;2.00;;;;;;;17.37;90.65;100529.41;5001000;28;20090;-75
2022/09/08 00:49:48;;;;;;;4.93;2.08;;;;;;;17.36;90.94;100538.25;4992680;28;21566;-74
2022/09/08 00:52:13;;;;;;;6.50;2.05;;;;;;;17.36;90.98;100522.53;5001410;28;20465;-74
2022/09/08 00:54:39;;;;;;;6.57;2.45;;;;;;;17.27;92.01;100514.09;5001732;28;20027;-76
2022/09/08 00:57:05;;;;;;;3.95;2.00;;;;;;;17.25;92.32;100511.72;4998872;28;20065;-76
2022/09/08 00:59:36;;;;;;;7.88;1.95;;;;;;;17.25;91.75;100519.56;4995233;28;20552;-76
2022/09/08 01:02:21;;;;;;;6.15;2.10;;;;;;;17.23;92.01;100508.47;5020522;28;20375;-75
2022/09/08 01:04:48;;;;;;;3.22;2.03;;;;;;;17.18;92.38;100521.41;4990202;28;20033;-76
2022/09/08 01:13:04;;;;;;;9.68;2.50;;;;;;;17.11;93.20;100516.16;4999228;28;20044;-75
2022/09/08 01:15:30;;;;;;;3.53;1.60;;;;;;;17.07;93.77;100525.44;5000892;28;20076;-75
2022/09/08 01:17:56;;;;;;;6.43;1.88;;;;;;;17.07;94.06;100532.50;5010012;28;20039;-75
2022/09/08 01:20:37;;;;;;;8.20;2.45;;;;;;;17.08;94.46;100526.25;5000374;28;20456;-75
2022/09/08 01:23:13;;;;;;;4.35;2.03;;;;;;;17.04;94.57;100525.84;4987534;28;20038;-75
2022/09/08 01:25:45;;;;;;;9.95;3.08;;;;;;;17.07;94.61;100527.28;5002642;28;20128;-75
2022/09/08 01:28:21;;;;;;;5.68;2.20;;;;;;;17.10;94.18;100530.28;4998350;28;21539;-75
2022/09/08 01:30:47;;;;;;;6.22;2.28;;;;;;;17.13;93.69;100522.00;4985168;28;20034;-75
2022/09/08 01:33:14;;;;;;;4.32;1.95;;;;;;;17.18;93.31;100524.03;4997252;28;20033;-75
2022/09/08 01:35:40;;;;;;;5.40;2.03;;;;;;;17.20;92.84;100518.56;4995073;28;20033;-75
2022/09/08 01:38:07;;;;;;;5.63;2.28;;;;;;;17.19;93.10;100530.84;4995448;28;20037;-75
2022/09/08 01:40:33;;;;;;;4.35;1.88;;;;;;;17.18;93.20;100536.28;4999379;28;20026;-75
2022/09/08 01:42:58;;;;;;;7.32;2.15;;;;;;;17.18;93.00;100549.38;4996496;28;20041;-75
2022/09/08 01:45:24;;;;;;;14.65;3.50;;;;;;;17.17;92.79;100534.69;4996472;28;20056;-75
2022/09/08 01:47:53;;;;;;;6.55;2.30;;;;;;;17.19;92.53;100532.69;5011356;28;20517;-75
2022/09/08 01:50:18;;;;;;;7.22;2.55;;;;;;;17.21;92.08;100535.88;4999037;28;20041;-75
2022/09/08 01:52:44;;;;;;;9.45;2.10;;;;;;;17.17;92.12;100526.84;4999512;28;20042;-75
2022/09/08 01:55:09;;;;;;;7.80;2.55;;;;;;;17.17;91.95;100529.47;4993918;28;20041;-75
2022/09/08 01:57:35;;;;;;;8.25;2.40;;;;;;;17.18;91.50;100518.78;5000766;28;20037;-76
2022/09/08 02:00:01;;;;;;;5.65;2.72;;;;;;;17.16;91.52;100517.34;4996246;28;20077;-75
2022/09/08 02:02:30;;;;;;;12.07;2.83;;;;;;;17.16;91.77;100523.41;4997902;28;20042;-75
2022/09/08 02:04:55;;;;;;;5.47;2.50;;;;;;;17.15;91.89;100524.41;4998622;28;20375;-75
2022/09/08 02:07:20;;;;;;;5.22;2.08;;;;;;;17.14;91.67;100528.06;5000834;28;20127;-74
2022/09/08 02:09:46;;;;;;;5.72;1.95;;;;;;;17.13;91.44;100521.19;5025536;28;20038;-74
2022/09/08 02:12:12;;;;;;;6.55;2.40;;;;;;;17.13;91.33;100519.38;4998874;28;20034;-74
2022/09/08 02:14:37;;;;;;;9.80;2.38;;;;;;;17.11;92.11;100518.78;4997085;28;20046;-74
2022/09/08 02:17:03;;;;;;;6.93;2.03;;;;;;;17.08;92.76;100518.38;5001752;28;20038;-73
2022/09/08 02:19:28;;;;;;;5.13;1.70;;;;;;;17.05;93.33;100519.63;4994164;28;20039;-74
2022/09/08 02:21:54;;;;;;;8.23;2.10;;;;;;;17.02;93.74;100520.00;5008434;28;20023;-74
2022/09/08 02:24:20;;;;;;;6.90;3.28;;;;;;;17.03;94.13;100521.63;4997665;28;20030;-74
2022/09/08 02:26:45;;;;;;;5.95;2.15;;;;;;;17.01;94.12;100515.81;4996988;28;20399;-74
2022/09/08 02:29:11;;;;;;;5.68;1.77;;;;;;;17.03;93.93;100526.06;4996481;28;20052;-74
2022/09/08 02:31:37;;;;;;;5.07;2.22;;;;;;;17.05;93.39;100526.66;5001650;28;20435;-74
2022/09/08 02:34:03;;;;;;;3.33;2.30;;;;;;;17.06;93.06;100515.97;4996536;28;20030;-74
2022/09/08 02:36:28;;;;;;;8.70;2.33;;;;;;;17.07;92.98;100507.13;5000001;28;20411;-74
2022/09/08 02:38:55;;;;;;;8.07;2.00;;;;;;;17.08;92.70;100513.97;4997248;28;20034;-74
2022/09/08 02:41:22;;;;;;;5.85;2.15;;;;;;;17.07;92.70;100522.84;5000644;28;20038;-73
2022/09/08 02:43:48;;;;;;;5.10;1.85;;;;;;;17.07;92.93;100535.13;4997015;28;20066;-73
2022/09/08 02:46:14;;;;;;;8.93;3.40;;;;;;;17.07;93.13;100535.94;5002306;28;21336;-73
2022/09/08 02:48:40;;;;;;;7.53;2.15;;;;;;;17.10;93.48;100538.16;4998600;28;20038;-73
2022/09/08 02:51:08;;;;;;;9.07;2.83;;;;;;;17.06;94.36;100543.97;4997306;28;20034;-73
2022/09/08 02:53:34;;;;;;;7.18;2.00;;;;;;;17.04;94.72;100540.75;5017183;28;20074;-73
2022/09/08 02:56:01;;;;;;;5.63;2.22;;;;;;;17.04;95.22;100532.91;4994266;28;20065;-73
2022/09/08 02:58:26;;;;;;;5.90;2.42;;;;;;;17.04;95.59;100523.22;4998531;28;20084;-73
2022/09/08 03:00:53;;;;;;;6.32;1.92;;;;;;;17.06;95.37;100515.97;5002292;28;20022;-73
2022/09/08 03:03:19;;;;;;;7.38;2.28;;;;;;;17.09;94.79;100506.91;5000994;28;20026;-73
2022/09/08 03:05:45;;;;;;;7.30;2.58;;;;;;;17.12;95.19;100494.22;4993656;28;20038;-73
2022/09/08 03:08:11;;;;;;;7.60;2.30;;;;;;;17.08;96.34;100507.91;5001073;28;20061;-73
2022/09/08 03:10:37;;;;;;;9.13;3.13;;;;;;;17.05;97.07;100511.75;5000189;28;20101;-73
2022/09/08 03:13:03;;;;;;;6.15;2.20;;;;;;;17.00;97.83;100521.25;4994561;28;20780;-72
2022/09/08 03:15:30;;;;;;;7.70;2.10;;;;;;;16.99;97.96;100524.84;4998326;28;20281;-73
2022/09/08 03:17:56;;;;;;;9.45;2.58;;;;;;;16.94;97.92;100525.47;4999892;28;20086;-72
2022/09/08 03:20:22;;;;;;;11.23;2.65;;;;;;;16.92;98.06;100525.69;5023983;28;20042;-72
2022/09/08 03:22:49;;;;;;;9.13;2.90;;;;;;;16.93;98.23;100534.34;4999040;28;20030;-71
2022/09/08 03:25:15;;;;;;;4.82;2.10;;;;;;;16.96;98.31;100543.63;4999614;28;20030;-71
2022/09/08 03:27:41;;;;;;;9.52;2.30;;;;;;;16.97;98.40;100537.34;4992262;28;20037;-72
2022/09/08 03:30:08;;;;;;;8.00;2.40;;;;;;;16.99;98.56;100541.38;4994680;28;20053;-71
2022/09/08 03:32:36;;;;;;;8.15;2.85;;;;;;;17.02;99.50;100542.78;4994336;28;20045;-72
2022/09/08 03:35:02;;;;;;;7.50;2.78;;;;;;;17.03;99.77;100544.41;4997502;28;20546;-71
2022/09/08 03:37:27;;;;;;;9.10;2.83;;;;;;;17.06;99.66;100549.22;4990899;28;20112;-72
2022/09/08 03:39:54;;;;;;;4.60;2.03;;;;;;;17.06;99.69;100542.16;5002826;28;20030;-72
2022/09/08 03:42:19;;;;;;;5.95;2.55;;;;;;;17.09;99.45;100543.59;4990967;28;20157;-72
2022/09/08 03:44:45;;;;;;;6.22;2.33;;;;;;;17.08;99.48;100540.16;4994073;28;20346;-72
2022/09/08 03:47:11;;;;;;;8.18;3.75;;;;;;;17.07;100.00;100543.78;4993468;28;20041;-72
2022/09/08 03:49:36;;;;;;;9.50;3.03;;;;;;;17.07;100.00;100537.75;4991393;28;20045;-73
2022/09/08 03:52:03;;;;;;;9.05;3.03;;;;;;;17.07;100.00;100543.78;4999435;28;20046;-72
2022/09/08 03:54:47;;;;;;;7.50;3.13;;;;;;;17.06;100.00;100541.38;5002635;28;20022;-73
2022/09/08 03:57:13;;;;;;;9.38;3.25;;;;;;;17.05;100.00;100548.44;5001464;28;20034;-72
2022/09/08 03:59:38;;;;;;;8.90;3.33;;;;;;;17.01;100.00;100549.03;4997502;28;20022;-73
2022/09/08 04:02:04;;;;;;;6.10;2.80;;;;;;;16.96;100.00;100541.78;5012834;28;20459;-73
2022/09/08 04:04:30;;;;;;;7.63;4.25;;;;;;;16.92;100.00;100530.91;4995053;28;20076;-73
2022/09/08 04:06:57;;;;;;;6.85;3.75;;;;;;;16.89;100.00;100528.69;4998540;28;20045;-73
2022/09/08 04:09:22;;;;;;;10.60;4.40;;;;;;;16.86;100.00;100531.75;5009535;28;20038;-73
2022/09/08 04:11:48;;;;;;;10.23;4.15;;;;;;;16.84;100.00;100532.94;4994072;28;20026;-73
2022/09/08 04:14:14;;;;;;;14.13;4.13;;;;;;;16.81;100.00;100536.75;5013822;28;20474;-73
2022/09/08 04:16:43;;;;;;;9.90;4.50;;;;;;;16.78;100.00;100531.09;4994603;28;20037;-73
2022/09/08 04:19:10;;;;;;;9.98;3.75;;;;;;;16.71;100.00;100533.75;5000795;28;20051;-73
2022/09/08 04:21:35;;;;;;;7.95;3.13;;;;;;;16.68;100.00;100545.41;4998024;28;20037;-72
2022/09/08 04:24:01;;;;;;;7.53;3.38;;;;;;;16.69;100.00;100554.88;5027686;28;20038;-73
2022/09/08 04:26:27;;;;;;;8.85;3.17;;;;;;;16.66;100.00;100530.91;5002499;28;20029;-72
2022/09/08 04:28:53;;;;;;;11.13;4.13;;;;;;;16.70;100.00;100538.16;4994953;28;20038;-73
2022/09/08 04:31:20;;;;;;;7.22;2.97;;;;;;;16.63;100.00;100531.31;4997699;28;20034;-73
2022/09/08 04:33:46;;;;;;;6.78;2.80;;;;;;;16.62;100.00;100521.88;4996991;28;20052;-73
2022/09/08 04:36:15;;;;;;;6.32;3.30;;;;;;;16.62;100.00;100527.91;5003465;28;20117;-73
2022/09/08 04:38:42;;;;;;;5.50;2.63;;;;;;;16.60;100.00;100526.50;4998399;28;20038;-72
2022/09/08 04:41:10;;;;;;;6.32;3.20;;;;;;;16.61;100.00;100533.31;4997273;28;20030;-72
2022/09/08 04:43:37;;;;;;;7.53;2.58;;;;;;;16.61;100.00;100535.94;5003292;28;20030;-73
2022/09/08 04:46:04;;;;;;;8.07;2.95;;;;;;;16.61;100.00;100541.19;4996108;28;20443;-73
2022/09/08 04:48:31;;;;;;;7.63;3.03;;;;;;;16.60;100.00;100536.97;5001009;28;20510;-73
2022/09/08 04:50:57;;;;;;;8.00;2.53;;;;;;;16.59;100.00;100548.44;4996122;28;20038;-73
2022/09/08 04:53:24;;;;;;;6.97;2.53;;;;;;;16.60;100.00;100543.00;5003048;28;20503;-73
2022/09/08 04:55:49;;;;;;;4.55;2.10;;;;;;;16.61;100.00;100549.03;5003553;28;20037;-72
2022/09/08 04:58:15;;;;;;;6.45;2.30;;;;;;;16.61;100.00;100554.28;5011083;28;20443;-73
2022/09/08 05:00:40;;;;;;;3.10;1.65;;;;;;;16.63;100.00;100552.25;5001329;28;20042;-73
2022/09/08 05:03:06;;;;;;;6.78;2.15;;;;;;;16.62;100.00;100555.91;5000254;28;20038;-73
2022/09/08 05:05:31;;;;;;;6.50;2.42;;;;;;;16.60;100.00;100557.91;5000745;28;20096;-72
2022/09/08 05:07:57;;;;;;;6.38;2.55;;;;;;;16.56;100.00;100562.75;5002634;28;20038;-72
2022/09/08 05:10:23;;;;;;;6.18;2.55;;;;;;;16.57;100.00;100564.34;4995752;28;20037;-72
2022/09/08 05:12:48;;;;;;;8.70;2.70;;;;;;;16.58;100.00;100562.53;5025788;28;20537;-73
2022/09/08 05:15:14;;;;;;;8.73;2.60;;;;;;;16.57;100.00;100556.47;5026219;28;20100;-72
2022/09/08 05:17:39;;;;;;;9.00;2.95;;;;;;;16.56;100.00;100560.13;4993674;28;20057;-72
2022/09/08 05:20:06;;;;;;;7.82;2.75;;;;;;;16.55;100.00;100553.25;4998748;28;20121;-72
2022/09/08 05:22:32;;;;;;;8.52;3.67;;;;;;;16.49;100.00;100560.09;5011580;28;20699;-73
2022/09/08 05:24:57;;;;;;;11.05;3.10;;;;;;;16.46;100.00;100552.69;5011574;28;20017;-73
2022/09/08 05:27:22;;;;;;;10.20;2.85;;;;;;;16.43;100.00;100563.53;5001353;28;20445;-72
2022/09/08 05:29:48;;;;;;;8.75;3.30;;;;;;;16.39;100.00;100559.72;4995000;28;20073;-72
2022/09/08 05:32:13;;;;;;;8.70;3.70;;;;;;;16.34;100.00;100567.34;5012276;28;20030;-72
2022/09/08 05:34:39;;;;;;;14.45;3.13;;;;;;;16.37;100.00;100576.59;4993875;28;20039;-73
2022/09/08 05:37:04;;;;;;;8.45;2.60;;;;;;;16.35;100.00;100580.22;4995654;28;20045;-72
2022/09/08 05:39:30;;;;;;;6.53;2.90;;;;;;;16.36;100.00;100573.19;5025873;28;20030;-72
2022/09/08 05:41:55;;;;;;;10.77;2.75;;;;;;;16.39;100.00;100572.78;4994494;28;20492;-72
2022/09/08 05:44:21;;;;;;;7.82;2.97;;;;;;;16.43;100.00;100576.63;5014481;28;20042;-73
2022/09/08 05:46:46;;;;;;;7.65;3.25;;;;;;;16.44;100.00;100575.59;5000401;28;20026;-73
2022/09/08 05:49:12;;;;;;;7.47;2.75;;;;;;;16.45;100.00;100568.56;5001310;28;20040;-73
2022/09/08 05:51:37;;;;;;;7.32;2.92;;;;;;;16.47;100.00;100579.63;5002086;28;20041;-73
2022/09/08 05:54:03;;;;;;;6.85;2.40;;;;;;;16.47;100.00;100582.25;4997363;28;20030;-73
2022/09/08 05:56:30;;;;;;;7.25;2.50;;;;;;;16.48;100.00;100579.44;4998242;28;20041;-73
2022/09/08 05:59:00;;;;;;;5.82;2.40;;;;;;;16.48;100.00;100573.38;4999210;28;20185;-73
2022/09/08 06:01:27;;;;;;;6.50;2.60;;;;;;;16.47;100.00;100569.16;4996245;28;20459;-74
2022/09/08 06:03:53;;;;;;;7.47;2.67;;;;;;;16.47;100.00;100569.16;4997616;28;20545;-74
2022/09/08 06:06:19;;;;;;;7.65;3.10;;;;;;;16.47;100.00;100575.19;4999661;28;20046;-74
2022/09/08 06:08:45;;;;;;;5.80;2.58;;;;;;;16.47;100.00;100566.56;4999901;28;20032;-74
2022/09/08 06:11:10;;;;;;;7.38;2.70;;;;;;;16.45;100.00;100561.50;4992392;28;20041;-74
2022/09/08 06:13:37;;;;;;;6.22;2.95;;;;;;;16.44;100.00;100556.47;5007986;28;20390;-74
2022/09/08 06:16:11;;;;;;;9.68;3.00;;;;;;;16.44;100.00;100556.47;5015453;28;20149;-74
2022/09/08 06:18:40;;;;;;;9.48;2.83;;;;;;;16.45;100.00;100563.34;4993753;28;20376;-73
2022/09/08 06:21:07;;;;;;;6.15;2.80;;;;;;;16.46;100.00;100567.53;5000356;28;20041;-73
2022/09/08 06:23:33;;;;;;;9.20;3.30;;;;;;;16.48;100.00;100573.38;4995076;28;20064;-74
2022/09/08 06:26:16;;;;;;;7.57;3.13;;;;;;;16.52;100.00;100585.88;5002473;28;20044;-74
2022/09/08 06:29:05;;;;;;;;;;;;;;;16.47;100.00;100588.28;5002832;28;20037;-75
2022/09/08 06:31:34;;;;;;;9.63;2.67;;;;;;;16.41;100.00;100581.25;4993870;28;19913;-74
2022/09/08 06:34:04;;;;;;;9.15;2.92;;;;;;;16.38;100.00;100581.63;4996091;28;20083;-74
2022/09/08 06:36:52;;;;;;;5.72;2.42;;;;;;;16.39;100.00;100583.25;4994380;28;20073;-73
2022/09/08 06:39:24;;;;;;;7.70;2.90;;;;;;;16.38;100.00;100591.31;5008395;28;20038;-73
2022/09/08 06:42:01;;;;;;;8.10;3.30;;;;;;;16.42;100.00;100593.31;5000575;28;20121;-73
2022/09/08 06:44:32;;;;;;;12.00;3.75;;;;;;;16.37;100.00;100600.97;5008330;28;20029;-73
2022/09/08 06:46:58;;;;;;;7.72;4.18;;;;;;;16.43;100.00;100599.38;4992304;28;20426;-74
2022/09/08 06:49:27;;;;;;;9.38;4.05;;;;;;;16.40;100.00;100591.91;4991349;28;20084;-73
2022/09/08 06:52:36;;;;;;;6.97;3.40;;;;;;;16.33;100.00;100607.56;4993472;28;20433;-74
2022/09/08 06:55:13;;;;;;;8.43;3.72;;;;;;;16.33;100.00;100605.78;5013599;28;20490;-74
2022/09/08 06:57:55;;;;;;;6.55;3.35;;;;;;;16.27;100.00;100608.38;5009950;28;20034;-74
2022/09/08 07:00:28;;;;;;;5.75;3.20;;;;;;;16.19;100.00;100604.13;4997505;28;20036;-73
2022/09/08 07:03:14;;;;;;;7.93;3.78;;;;;;;16.17;100.00;100615.81;5000040;28;20030;-73
2022/09/08 07:05:55;;;;;;;5.97;2.75;;;;;;;16.22;100.00;100614.22;4999060;28;20041;-74
2022/09/08 07:08:40;;;;;;;8.52;2.92;;;;;;;16.21;100.00;100612.59;5030054;23;20048;-75
2022/09/08 07:11:36;;;;;;;7.97;2.60;;;;;;;16.17;100.00;100613.19;5016124;28;20060;-76
2022/09/08 07:14:23;;;;;;;10.25;2.50;;;;;;;16.12;100.00;100611.16;5021444;28;20458;-75
2022/09/08 07:17:02;;;;;;;4.53;2.20;;;;;;;16.13;100.00;100616.19;4995464;28;20029;-75
2022/09/08 07:19:50;;;;;;;6.18;1.60;;;;;;;16.03;100.00;100618.38;5054214;23;20574;-74
2022/09/08 07:22:53;;;;;;;2.60;1.40;;;;;;;15.98;100.00;100622.59;5014340;28;20033;-75
2022/09/08 07:25:53;;;;;;;5.55;1.65;;;;;;;15.95;100.00;100621.97;5004267;28;20120;-77
2022/09/08 07:28:25;;;;;;;3.63;1.35;;;;;;;15.96;100.00;100620.97;5002892;28;20041;-78
2022/09/08 07:31:00;;;;;;;3.88;1.30;;;;;;;16.01;100.00;100628.25;5012538;28;20125;-77
2022/09/08 07:33:40;;;;;;;4.38;1.70;;;;;;;16.03;100.00;100622.78;5017775;28;20045;-77
2022/09/08 07:36:15;;;;;;;2.95;1.40;;;;;;;16.03;100.00;100620.19;5021107;28;20033;-77
2022/09/08 07:38:59;;;;;;;5.93;1.40;;;;;;;16.08;100.00;100618.59;5018820;28;20037;-77
2022/09/08 07:41:40;;;;;;;3.83;1.17;;;;;;;16.12;100.00;100616.38;5009416;28;20468;-77
2022/09/08 07:44:15;;;;;;;3.72;1.40;;;;;;;16.15;100.00;100619.41;5015255;28;20370;-77
2022/09/08 07:47:08;;;;;;;2.50;1.30;;;;;;;16.20;100.00;100616.22;5023019;28;20021;-77
2022/09/08 07:49:55;;;;;;;;;;;;;;;16.32;100.00;100613.84;5014378;28;20080;-77
2022/09/08 07:52:49;;;;;;;6.13;2.00;;;;;;;16.40;100.00;100626.72;5007724;28;20388;-77
2022/09/08 07:55:27;;;;;;;7.45;2.35;;;;;;;16.44;100.00;100620.06;5021838;28;20029;-77
2022/09/08 07:58:16;;;;;;;3.78;1.42;;;;;;;16.48;100.00;100623.94;5005676;28;20496;-77
2022/09/08 08:01:01;;;;;;;4.82;1.55;;;;;;;16.60;100.00;100618.91;5005482;28;20065;-76
2022/09/08 08:04:01;;;;;;;3.40;1.35;;;;;;;16.59;100.00;100617.28;5012386;28;20441;-77
2022/09/08 08:06:50;;;;;;;2.88;1.30;;;;;;;16.63;100.00;100617.69;4996959;28;20116;-76
2022/09/08 08:09:45;;;;;;;4.28;1.65;;;;;;;16.73;100.00;100615.50;5024590;28;20095;-77
2022/09/08 08:12:42;;;;;;;7.28;1.60;;;;;;;17.71;100.00;100612.16;5009843;28;20025;-77
2022/09/08 08:15:10;;;;;;;3.55;1.33;;;;;;;18.18;100.00;100615.38;5011585;28;20034;-76
2022/09/08 08:17:40;;;;;;;4.53;1.70;;;;;;;18.49;99.48;100609.31;5015674;28;20041;-76
2022/09/08 08:20:25;;;;;;;3.35;1.50;;;;;;;18.91;96.07;100615.91;4983736;28;20029;-77
2022/09/08 08:23:19;;;;;;;4.03;1.80;;;;;;;18.88;92.91;100619.78;5008868;28;20470;-75
2022/09/08 08:25:44;;;;;;;;;;;;;;;18.78;92.97;100624.66;4996350;28;20386;-76
2022/09/08 08:28:17;;;;;;;6.37;2.00;;;;;;;19.18;92.40;100617.28;4983515;28;19922;-75
2022/09/08 08:31:24;;;;;;;4.25;2.08;;;;;;;19.77;88.16;100616.88;5011871;28;20472;-75
2022/09/08 08:34:12;;;;;;;2.92;2.00;;;;;;;20.50;84.08;100618.50;5004486;28;20692;-75
2022/09/08 08:36:43;;;;;;;8.05;2.28;;;;;;;21.15;82.84;100616.84;5009247;28;20273;-75
2022/09/08 08:39:36;;;;;;;5.47;1.65;;;;;;;21.60;79.07;100607.53;4990183;28;20041;-77
2022/09/08 08:42:13;;;;;;;3.80;1.60;;;;;;;22.13;76.17;100617.78;5010581;28;20053;-76
2022/09/08 08:44:47;;;;;;;3.53;1.60;;;;;;;22.60;75.31;100615.91;5023151;28;20029;-76
2022/09/08 08:47:31;;;;;;;6.50;1.70;;;;;;;22.29;74.91;100607.50;5025452;28;20090;-76
2022/09/08 08:50:12;;;;;;;6.43;1.50;;;;;;;21.65;76.23;100612.91;5020535;28;20037;-76
2022/09/08 08:52:44;;;;;;;5.75;1.77;;;;;;;20.66;79.08;100621.53;5002175;28;20084;-76
2022/09/08 08:55:25;;;;;;;6.00;1.63;;;;;;;20.47;78.99;100620.78;5004292;28;20044;-75
2022/09/08 08:58:00;;;;;;;8.77;1.42;;;;;;;20.00;80.03;100616.16;5016183;28;20068;-76
2022/09/08 09:00:57;;;;;;;4.15;1.63;;;;;;;19.52;84.11;100615.09;4999395;28;20037;-75
2022/09/08 09:03:44;;;;;;;3.45;1.30;;;;;;;19.43;86.05;100617.22;4985812;28;20042;-77
2022/09/08 09:06:12;;;;;;;2.47;1.00;;;;;;;19.83;83.63;100623.88;5017754;28;20029;-77
2022/09/08 09:09:20;;;;;;;4.35;1.00;;;;;;;19.54;84.99;100623.56;5004455;28;20028;-76
2022/09/08 09:11:45;;;;;;;4.40;1.17;;;;;;;19.24;83.99;100623.50;5004736;28;20030;-76
2022/09/08 09:14:17;;;;;;;4.43;1.50;;;;;;;19.08;86.96;100626.66;5014540;28;20120;-76
2022/09/08 09:17:17;;;;;;;4.68;1.55;;;;;;;18.93;87.06;100616.50;4991997;28;20037;-77
2022/09/08 09:20:09;;;;;;;4.85;1.42;;;;;;;18.86;86.73;100621.81;5020662;28;20036;-77
2022/09/08 09:22:54;;;;;;;6.38;1.50;;;;;;;18.78;85.83;100630.75;4988345;28;21371;-75
2022/09/08 09:25:52;;;;;;;6.53;1.23;;;;;;;19.42;84.85;100625.31;5004391;28;20379;-76
2022/09/08 09:28:41;;;;;;;6.18;1.23;;;;;;;20.53;82.42;100625.97;5016023;28;20056;-77
2022/09/08 09:31:26;;;;;;;4.05;1.30;;;;;;;20.56;78.30;100620.22;5017752;28;20383;-76
2022/09/08 09:34:27;;;;;;;5.40;1.00;;;;;;;20.93;76.72;100616.66;5015715;28;20056;-76
2022/09/08 09:37:21;;;;;;;3.38;1.00;;;;;;;21.49;77.14;100619.69;5017764;28;20040;-74
2022/09/08 09:39:59;;;;;;;6.90;1.15;;;;;;;21.51;74.21;100618.44;5018184;28;20039;-76
2022/09/08 09:42:29;;;;;;;10.40;1.20;;;;;;;20.79;74.32;100616.03;5016739;28;20045;-76
2022/09/08 09:45:03;;;;;;;3.20;1.17;;;;;;;20.74;75.83;100619.38;5014527;28;20421;-76
2022/09/08 09:47:50;;;;;;;5.68;1.35;;;;;;;20.69;74.51;100621.09;5011593;28;20037;-76
2022/09/08 09:50:47;;;;;;;5.43;0.98;;;;;;;20.30;77.78;100623.25;5011765;28;20037;-75
2022/09/08 09:53:49;;;;;;;3.33;0.63;;;;;;;20.26;74.68;100617.63;5017987;28;20057;-77
2022/09/08 09:56:46;;;;;;;4.35;0.60;;;;;;;20.15;75.24;100629.72;5008613;28;20083;-73
2022/09/08 09:59:30;;;;;;;5.45;0.82;;;;;;;20.74;74.83;100618.59;5015376;28;20545;-76
2022/09/08 10:02:30;;;;;;;3.78;0.75;;;;;;;20.93;71.11;100612.16;5010663;28;20029;-75
2022/09/08 10:05:40;;;;;;;3.03;0.52;;;;;;;21.00;69.56;100604.13;5005221;28;20060;-76
2022/09/08 10:08:17;;;;;;;3.00;0.63;;;;;;;21.10;68.75;100608.84;5005408;28;20463;-76
2022/09/08 10:10:58;;;;;;;2.92;0.70;;;;;;;21.08;69.69;100606.44;5019630;28;20038;-75
2022/09/08 10:13:41;;;;;;;2.00;0.50;;;;;;;21.18;67.72;100593.47;5015791;28;20157;-77
2022/09/08 10:16:26;;;;;;;;;;;;;;;21.29;65.83;100601.59;5020620;28;20042;-74
2022/09/08 10:19:26;;;;;;;2.00;0.60;;;;;;;21.32;64.44;100603.75;5015703;28;19913;-75
2022/09/08 10:22:22;;;;;;;5.75;1.38;;;;;;;21.18;65.16;100601.38;4998580;28;20029;-76
2022/09/08 10:24:50;;;;;;;1.58;0.57;;;;;;;21.22;64.86;100593.81;5018416;28;20482;-76
2022/09/08 10:28:03;;;;;;;3.95;0.75;;;;;;;21.26;64.34;100602.06;5020202;28;20044;-75
2022/09/08 10:30:50;;;;;;;3.70;0.60;;;;;;;21.45;65.08;100610.66;5002249;28;20083;-76
2022/09/08 10:33:34;;;;;;;4.55;0.93;;;;;;;21.70;65.98;100605.06;5006458;28;20123;-77
2022/09/08 10:36:13;;;;;;;1.48;0.95;;;;;;;21.93;64.54;100610.28;5018529;28;20042;-77
2022/09/08 10:38:55;;;;;;;5.60;0.77;;;;;;;21.86;63.66;100608.81;4997683;28;20722;-75
2022/09/08 10:41:58;;;;;;;5.18;1.05;;;;;;;22.00;61.96;100607.50;5010779;28;20030;-75
2022/09/08 10:44:44;;;;;;;3.70;0.60;;;;;;;22.22;63.28;100599.69;5020424;28;20037;-78
2022/09/08 10:47:44;;;;;;;5.03;1.10;;;;;;;22.44;61.54;100596.41;5022007;28;20580;-77
2022/09/08 10:50:21;;;;;;;4.20;0.77;;;;;;;22.01;60.93;100606.47;5017750;28;20048;-77
2022/09/08 10:53:02;;;;;;;3.55;0.85;;;;;;;21.86;61.55;100600.91;5005412;28;20065;-76
2022/09/08 10:55:46;;;;;;;2.47;0.50;;;;;;;21.63;62.39;100599.94;5019361;28;20488;-75
2022/09/08 10:58:37;;;;;;;2.50;0.88;;;;;;;21.66;62.59;100599.50;5008666;28;20034;-77
2022/09/08 11:01:47;;;;;;;3.13;0.60;;;;;;;21.90;62.09;100600.19;5009006;28;20037;-77
2022/09/08 11:04:31;;;;;;;1.73;0.57;;;;;;;22.41;60.60;100592.38;5001087;28;20482;-77
2022/09/08 11:07:34;;;;;;;4.13;0.73;;;;;;;22.29;59.43;100587.16;5019905;28;20033;-76
2022/09/08 11:10:12;;;;;;;1.48;0.40;;;;;;;22.59;59.10;100580.78;5014350;28;20556;-76
2022/09/08 11:13:16;;;;;;;4.03;0.90;;;;;;;22.66;60.00;100581.44;5021034;28;20041;-76
2022/09/08 11:15:54;;;;;;;2.25;0.45;;;;;;;22.80;59.23;100579.22;4956007;28;20049;-76
2022/09/08 11:18:29;;;;;;;2.30;0.50;;;;;;;22.57;57.03;100580.22;5010718;28;20037;-77
2022/09/08 11:21:00;;;;;;;2.97;0.75;;;;;;;22.89;57.24;100580.44;5008347;28;20039;-77
2022/09/08 11:23:50;;;;;;;2.55;0.55;;;;;;;23.01;56.38;100582.97;5003354;28;20040;-77
2022/09/08 11:26:52;;;;;;;2.20;0.60;;;;;;;23.04;56.01;100587.00;5019900;28;20044;-76
2022/09/08 11:29:18;;;;;;;2.90;0.65;;;;;;;22.60;55.21;100586.84;5022199;28;20500;-75
2022/09/08 11:31:54;;;;;;;1.85;0.82;;;;;;;22.46;56.14;100579.25;5017195;28;20068;-76
2022/09/08 11:34:55;;;;;;;4.75;0.70;;;;;;;22.21;57.16;100587.53;5024398;28;20120;-77
2022/09/08 11:37:20;;;;;;;1.55;0.50;;;;;;;;;;4974749;28;20041;-76
2022/09/08 11:40:08;;;;;;;3.87;0.63;;;;;;;22.14;56.88;100576.31;4986444;28;20040;-76
2022/09/08 11:43:04;;;;;;;2.55;0.95;;;;;;;22.06;57.73;100582.81;5015731;28;20460;-75
2022/09/08 11:46:05;;;;;;;4.20;1.27;;;;;;;21.92;58.82;100590.19;5021089;28;20068;-76
2022/09/08 11:48:44;;;;;;;2.17;0.50;;;;;;;22.19;58.08;100580.88;5012732;28;20608;-76
2022/09/08 11:51:33;;;;;;;2.42;1.00;;;;;;;22.34;57.83;100583.84;4981917;28;20044;-77
2022/09/08 11:54:20;;;;;;;2.35;0.40;;;;;;;22.78;57.13;100575.25;5024888;28;20041;-76
2022/09/08 11:57:16;;;;;;;3.10;0.70;;;;;;;22.78;54.86;100565.47;5009941;28;20037;-77
2022/09/08 12:00:00;;;;;;;6.53;2.42;;;;;;;22.91;55.83;100566.97;5011804;28;20879;-78
2022/09/08 12:02:44;;;;;;;2.90;0.50;;;;;;;22.93;55.83;100562.25;5008944;28;20042;-77
2022/09/08 12:05:34;;;;;;;2.08;0.40;;;;;;;22.79;54.46;100559.13;5009644;28;20063;-77